sensor_id;sensor_type;location;lat;lon;timestamp;pressure;altitude;pressure_sealevel;temperature;humidity
62055;BME280;48653;51.742;-1.256;2023-03-25T00:03:44;99176.07;;;5.99;55.15
62055;BME280;48653;51.742;-1.256;2023-03-25T00:06:10;99171.02;;;5.83;57.29
62055;BME280;48653;51.742;-1.256;2023-03-25T00:08:34;99182.51;;;5.94;56.96
62055;BME280;48653;51.742;-1.256;2023-03-25T00:11:01;99189.62;;;5.49;58.61
62055;BME280;48653;51.742;-1.256;2023-03-25T00:13:24;99189.52;;;5.59;58.53
62055;BME280;48653;51.742;-1.256;2023-03-25T00:15:49;99184.97;;;5.85;58.14
62055;BME280;48653;51.742;-1.256;2023-03-25T00:18:14;99186.73;;;5.60;58.91
62055;BME280;48653;51.742;-1.256;2023-03-25T00:20:40;99185.73;;;6.15;58.58
62055;BME280;48653;51.742;-1.256;2023-03-25T00:23:05;99193.13;;;6.08;57.61
62055;BME280;48653;51.742;-1.256;2023-03-25T00:25:30;99202.90;;;5.57;59.69
62055;BME280;48653;51.742;-1.256;2023-03-25T00:27:56;99196.31;;;6.20;59.20
62055;BME280;48653;51.742;-1.256;2023-03-25T00:30:20;99191.35;;;6.47;58.26
62055;BME280;48653;51.742;-1.256;2023-03-25T00:32:46;99192.96;;;6.85;57.98
62055;BME280;48653;51.742;-1.256;2023-03-25T00:35:11;99193.74;;;6.86;56.86
62055;BME280;48653;51.742;-1.256;2023-03-25T00:37:36;99196.61;;;6.29;58.66
62055;BME280;48653;51.742;-1.256;2023-03-25T00:40:02;99189.35;;;6.46;57.67
62055;BME280;48653;51.742;-1.256;2023-03-25T00:42:27;99191.35;;;5.80;59.02
62055;BME280;48653;51.742;-1.256;2023-03-25T00:44:52;99184.68;;;6.65;59.14
62055;BME280;48653;51.742;-1.256;2023-03-25T00:47:18;99186.01;;;6.17;60.93
62055;BME280;48653;51.742;-1.256;2023-03-25T00:49:43;99187.33;;;6.39;59.52
62055;BME280;48653;51.742;-1.256;2023-03-25T00:52:08;99187.90;;;6.53;59.11
62055;BME280;48653;51.742;-1.256;2023-03-25T00:54:33;99187.46;;;6.45;59.69
62055;BME280;48653;51.742;-1.256;2023-03-25T00:56:59;99200.67;;;6.32;60.37
62055;BME280;48653;51.742;-1.256;2023-03-25T00:59:25;99193.87;;;6.41;60.02
62055;BME280;48653;51.742;-1.256;2023-03-25T01:01:50;99196.76;;;6.55;60.31
62055;BME280;48653;51.742;-1.256;2023-03-25T01:04:15;99203.02;;;6.38;61.05
62055;BME280;48653;51.742;-1.256;2023-03-25T01:06:41;99185.10;;;5.78;62.38
62055;BME280;48653;51.742;-1.256;2023-03-25T01:09:07;99197.41;;;6.05;61.29
62055;BME280;48653;51.742;-1.256;2023-03-25T01:11:32;99203.16;;;6.28;62.26
62055;BME280;48653;51.742;-1.256;2023-03-25T01:13:57;99199.40;;;6.25;62.02
62055;BME280;48653;51.742;-1.256;2023-03-25T01:16:22;99201.46;;;6.33;61.78
62055;BME280;48653;51.742;-1.256;2023-03-25T01:18:46;99194.42;;;6.76;61.14
62055;BME280;48653;51.742;-1.256;2023-03-25T01:21:12;99186.46;;;6.90;60.50
62055;BME280;48653;51.742;-1.256;2023-03-25T01:23:37;99195.02;;;6.24;62.74
62055;BME280;48653;51.742;-1.256;2023-03-25T01:26:03;99193.54;;;6.34;62.25
62055;BME280;48653;51.742;-1.256;2023-03-25T01:28:28;99191.42;;;7.32;59.49
62055;BME280;48653;51.742;-1.256;2023-03-25T01:30:59;99191.18;;;6.57;61.19
62055;BME280;48653;51.742;-1.256;2023-03-25T01:33:20;99190.11;;;6.15;62.09
62055;BME280;48653;51.742;-1.256;2023-03-25T01:35:45;99198.93;;;6.10;63.41
62055;BME280;48653;51.742;-1.256;2023-03-25T01:38:10;99208.87;;;6.52;62.74
62055;BME280;48653;51.742;-1.256;2023-03-25T01:40:35;99198.36;;;6.32;64.30
62055;BME280;48653;51.742;-1.256;2023-03-25T01:43:00;99212.69;;;6.46;63.84
62055;BME280;48653;51.742;-1.256;2023-03-25T01:45:28;99193.57;;;6.14;64.04
62055;BME280;48653;51.742;-1.256;2023-03-25T01:47:58;99200.89;;;6.68;63.03
62055;BME280;48653;51.742;-1.256;2023-03-25T01:50:17;99202.05;;;6.62;63.43
62055;BME280;48653;51.742;-1.256;2023-03-25T01:52:45;99205.37;;;6.28;64.74
62055;BME280;48653;51.742;-1.256;2023-03-25T01:55:08;99191.04;;;6.14;64.75
62055;BME280;48653;51.742;-1.256;2023-03-25T01:57:32;99195.55;;;6.41;64.24
62055;BME280;48653;51.742;-1.256;2023-03-25T01:59:58;99194.59;;;6.46;63.54
62055;BME280;48653;51.742;-1.256;2023-03-25T02:02:23;99201.42;;;7.00;61.73
62055;BME280;48653;51.742;-1.256;2023-03-25T02:04:52;99197.27;;;6.35;62.96
62055;BME280;48653;51.742;-1.256;2023-03-25T02:07:13;99204.86;;;6.30;63.49
62055;BME280;48653;51.742;-1.256;2023-03-25T02:09:38;99192.67;;;6.32;62.79
62055;BME280;48653;51.742;-1.256;2023-03-25T02:12:04;99200.93;;;5.94;63.36
62055;BME280;48653;51.742;-1.256;2023-03-25T02:14:31;99197.74;;;5.95;63.29
62055;BME280;48653;51.742;-1.256;2023-03-25T02:16:59;99201.76;;;6.18;62.35
62055;BME280;48653;51.742;-1.256;2023-03-25T02:29:06;99207.73;;;6.39;62.36
62055;BME280;48653;51.742;-1.256;2023-03-25T02:31:38;99213.37;;;6.39;62.03
62055;BME280;48653;51.742;-1.256;2023-03-25T02:34:10;99213.28;;;6.36;62.28
62055;BME280;48653;51.742;-1.256;2023-03-25T02:36:39;99221.81;;;5.93;63.81
62055;BME280;48653;51.742;-1.256;2023-03-25T02:38:45;99213.32;;;6.06;63.10
62055;BME280;48653;51.742;-1.256;2023-03-25T02:41:12;99205.85;;;5.79;64.29
62055;BME280;48653;51.742;-1.256;2023-03-25T02:43:37;99209.42;;;5.80;64.22
62055;BME280;48653;51.742;-1.256;2023-03-25T02:46:00;99203.50;;;6.17;62.58
62055;BME280;48653;51.742;-1.256;2023-03-25T02:48:28;99201.74;;;6.33;62.36
62055;BME280;48653;51.742;-1.256;2023-03-25T02:50:51;99205.15;;;6.17;62.72
62055;BME280;48653;51.742;-1.256;2023-03-25T02:53:17;99209.67;;;6.19;62.86
62055;BME280;48653;51.742;-1.256;2023-03-25T02:55:39;99220.86;;;5.79;62.98
62055;BME280;48653;51.742;-1.256;2023-03-25T02:58:06;99216.54;;;6.13;61.91
62055;BME280;48653;51.742;-1.256;2023-03-25T03:00:29;99227.61;;;5.49;64.37
62055;BME280;48653;51.742;-1.256;2023-03-25T03:02:56;99227.72;;;5.50;63.37
62055;BME280;48653;51.742;-1.256;2023-03-25T03:05:23;99233.98;;;5.29;64.77
62055;BME280;48653;51.742;-1.256;2023-03-25T03:07:48;99221.43;;;5.95;63.37
62055;BME280;48653;51.742;-1.256;2023-03-25T03:10:15;99220.15;;;6.37;60.93
62055;BME280;48653;51.742;-1.256;2023-03-25T03:12:45;99212.97;;;6.24;61.81
62055;BME280;48653;51.742;-1.256;2023-03-25T03:15:11;99214.19;;;5.77;63.23
62055;BME280;48653;51.742;-1.256;2023-03-25T03:17:31;99221.87;;;6.22;62.26
62055;BME280;48653;51.742;-1.256;2023-03-25T03:19:53;99223.45;;;6.18;62.44
62055;BME280;48653;51.742;-1.256;2023-03-25T03:22:27;99224.86;;;6.58;61.45
62055;BME280;48653;51.742;-1.256;2023-03-25T03:24:46;99225.63;;;6.49;60.64
62055;BME280;48653;51.742;-1.256;2023-03-25T03:27:10;99229.83;;;5.94;63.10
62055;BME280;48653;51.742;-1.256;2023-03-25T03:29:36;99228.83;;;5.99;63.22
62055;BME280;48653;51.742;-1.256;2023-03-25T03:32:01;99236.59;;;6.11;64.33
62055;BME280;48653;51.742;-1.256;2023-03-25T03:34:27;99238.37;;;6.08;63.93
62055;BME280;48653;51.742;-1.256;2023-03-25T03:36:49;99244.39;;;5.82;65.45
62055;BME280;48653;51.742;-1.256;2023-03-25T03:39:17;99249.61;;;5.84;64.91
62055;BME280;48653;51.742;-1.256;2023-03-25T03:41:40;99235.92;;;5.64;66.21
62055;BME280;48653;51.742;-1.256;2023-03-25T03:44:07;99225.39;;;6.26;64.23
62055;BME280;48653;51.742;-1.256;2023-03-25T03:46:33;99239.65;;;6.24;64.30
62055;BME280;48653;51.742;-1.256;2023-03-25T03:48:57;99250.46;;;6.17;63.93
62055;BME280;48653;51.742;-1.256;2023-03-25T03:51:24;99255.41;;;5.82;65.44
62055;BME280;48653;51.742;-1.256;2023-03-25T03:53:50;99252.21;;;6.31;63.77
62055;BME280;48653;51.742;-1.256;2023-03-25T03:56:14;99256.24;;;6.41;63.84
62055;BME280;48653;51.742;-1.256;2023-03-25T03:58:38;99259.18;;;5.97;64.84
62055;BME280;48653;51.742;-1.256;2023-03-25T04:01:05;99264.41;;;6.22;63.73
62055;BME280;48653;51.742;-1.256;2023-03-25T04:03:30;99259.29;;;6.42;63.59
62055;BME280;48653;51.742;-1.256;2023-03-25T04:05:59;99254.88;;;6.25;64.13
62055;BME280;48653;51.742;-1.256;2023-03-25T04:08:25;99268.96;;;6.27;63.63
62055;BME280;48653;51.742;-1.256;2023-03-25T04:10:49;99269.89;;;6.29;64.30
62055;BME280;48653;51.742;-1.256;2023-03-25T04:13:11;99273.86;;;6.56;63.26
62055;BME280;48653;51.742;-1.256;2023-03-25T04:15:35;99262.99;;;6.36;64.07
62055;BME280;48653;51.742;-1.256;2023-03-25T04:18:00;99275.05;;;6.41;63.69
62055;BME280;48653;51.742;-1.256;2023-03-25T04:20:26;99277.33;;;6.30;64.00
62055;BME280;48653;51.742;-1.256;2023-03-25T04:22:51;99293.83;;;6.25;64.52
62055;BME280;48653;51.742;-1.256;2023-03-25T04:25:17;99296.31;;;6.15;64.42
62055;BME280;48653;51.742;-1.256;2023-03-25T04:27:42;99308.05;;;6.06;65.60
62055;BME280;48653;51.742;-1.256;2023-03-25T04:30:07;99300.17;;;6.30;64.88
62055;BME280;48653;51.742;-1.256;2023-03-25T04:32:33;99303.17;;;6.59;63.73
62055;BME280;48653;51.742;-1.256;2023-03-25T04:34:58;99305.33;;;6.71;63.63
62055;BME280;48653;51.742;-1.256;2023-03-25T04:37:23;99305.66;;;6.71;64.30
62055;BME280;48653;51.742;-1.256;2023-03-25T04:39:48;99311.31;;;6.86;63.85
62055;BME280;48653;51.742;-1.256;2023-03-25T04:42:14;99307.69;;;6.79;62.89
62055;BME280;48653;51.742;-1.256;2023-03-25T04:44:39;99302.41;;;6.75;63.09
62055;BME280;48653;51.742;-1.256;2023-03-25T04:47:06;99298.46;;;6.89;62.49
62055;BME280;48653;51.742;-1.256;2023-03-25T04:49:29;99294.34;;;6.78;62.96
62055;BME280;48653;51.742;-1.256;2023-03-25T04:51:55;99308.77;;;7.42;61.11
62055;BME280;48653;51.742;-1.256;2023-03-25T04:54:20;99314.55;;;6.94;62.21
62055;BME280;48653;51.742;-1.256;2023-03-25T04:56:46;99305.49;;;6.41;63.88
62055;BME280;48653;51.742;-1.256;2023-03-25T04:59:11;99308.21;;;6.88;62.42
62055;BME280;48653;51.742;-1.256;2023-03-25T05:01:36;99309.58;;;7.66;60.64
62055;BME280;48653;51.742;-1.256;2023-03-25T05:04:03;99323.23;;;6.61;62.28
62055;BME280;48653;51.742;-1.256;2023-03-25T05:06:26;99315.90;;;7.24;61.70
62055;BME280;48653;51.742;-1.256;2023-03-25T05:08:52;99331.91;;;6.88;62.62
62055;BME280;48653;51.742;-1.256;2023-03-25T05:11:17;99322.65;;;6.73;61.98
62055;BME280;48653;51.742;-1.256;2023-03-25T05:13:42;99334.96;;;7.25;61.09
62055;BME280;48653;51.742;-1.256;2023-03-25T05:16:08;99337.63;;;7.18;60.75
62055;BME280;48653;51.742;-1.256;2023-03-25T05:18:34;99336.94;;;6.85;61.01
62055;BME280;48653;51.742;-1.256;2023-03-25T05:20:59;99339.70;;;7.80;59.60
62055;BME280;48653;51.742;-1.256;2023-03-25T05:23:25;99344.51;;;7.22;59.53
62055;BME280;48653;51.742;-1.256;2023-03-25T05:25:50;99347.78;;;7.21;60.37
62055;BME280;48653;51.742;-1.256;2023-03-25T05:28:16;99346.81;;;7.06;60.17
62055;BME280;48653;51.742;-1.256;2023-03-25T05:30:41;99347.79;;;7.03;60.41
62055;BME280;48653;51.742;-1.256;2023-03-25T05:33:06;99342.40;;;7.52;59.01
62055;BME280;48653;51.742;-1.256;2023-03-25T05:35:31;99343.06;;;7.49;59.25
62055;BME280;48653;51.742;-1.256;2023-03-25T05:37:56;99350.28;;;7.46;59.28
62055;BME280;48653;51.742;-1.256;2023-03-25T05:40:21;99358.07;;;6.84;59.69
62055;BME280;48653;51.742;-1.256;2023-03-25T05:42:46;99352.98;;;7.17;59.55
62055;BME280;48653;51.742;-1.256;2023-03-25T05:45:11;99360.44;;;6.60;60.53
62055;BME280;48653;51.742;-1.256;2023-03-25T05:47:37;99363.18;;;7.03;60.53
62055;BME280;48653;51.742;-1.256;2023-03-25T05:50:03;99367.74;;;7.05;60.84
62055;BME280;48653;51.742;-1.256;2023-03-25T05:52:27;99370.14;;;6.89;61.51
62055;BME280;48653;51.742;-1.256;2023-03-25T05:54:53;99383.17;;;7.06;60.66
62055;BME280;48653;51.742;-1.256;2023-03-25T05:57:18;99378.91;;;7.28;60.39
62055;BME280;48653;51.742;-1.256;2023-03-25T05:59:43;99396.26;;;7.00;60.86
62055;BME280;48653;51.742;-1.256;2023-03-25T06:02:11;99387.20;;;6.99;60.05
62055;BME280;48653;51.742;-1.256;2023-03-25T06:04:34;99392.53;;;6.67;61.53
62055;BME280;48653;51.742;-1.256;2023-03-25T06:07:00;99391.14;;;6.73;61.45
62055;BME280;48653;51.742;-1.256;2023-03-25T06:09:25;99384.94;;;7.40;60.01
62055;BME280;48653;51.742;-1.256;2023-03-25T06:11:51;99397.89;;;6.72;61.13
62055;BME280;48653;51.742;-1.256;2023-03-25T06:14:16;99394.77;;;6.93;60.61
62055;BME280;48653;51.742;-1.256;2023-03-25T06:16:41;99409.96;;;7.01;60.52
62055;BME280;48653;51.742;-1.256;2023-03-25T06:19:06;99411.29;;;7.22;60.75
62055;BME280;48653;51.742;-1.256;2023-03-25T06:21:32;99408.60;;;6.91;61.70
62055;BME280;48653;51.742;-1.256;2023-03-25T06:23:58;99415.50;;;6.71;61.90
62055;BME280;48653;51.742;-1.256;2023-03-25T06:26:22;99425.20;;;7.12;61.09
62055;BME280;48653;51.742;-1.256;2023-03-25T06:28:48;99416.03;;;6.78;61.35
62055;BME280;48653;51.742;-1.256;2023-03-25T06:31:13;99447.25;;;6.95;61.13
62055;BME280;48653;51.742;-1.256;2023-03-25T06:33:39;99442.05;;;6.86;61.17
62055;BME280;48653;51.742;-1.256;2023-03-25T06:36:05;99436.40;;;6.90;61.19
62055;BME280;48653;51.742;-1.256;2023-03-25T06:38:29;99437.92;;;6.77;60.27
62055;BME280;48653;51.742;-1.256;2023-03-25T06:40:56;99449.66;;;7.29;59.96
62055;BME280;48653;51.742;-1.256;2023-03-25T06:43:21;99435.10;;;6.67;60.42
62055;BME280;48653;51.742;-1.256;2023-03-25T06:45:50;99440.18;;;7.02;59.81
62055;BME280;48653;51.742;-1.256;2023-03-25T06:48:11;99433.71;;;6.73;60.33
62055;BME280;48653;51.742;-1.256;2023-03-25T06:50:36;99442.40;;;6.97;60.87
62055;BME280;48653;51.742;-1.256;2023-03-25T06:53:01;99435.19;;;7.05;60.00
62055;BME280;48653;51.742;-1.256;2023-03-25T06:55:26;99442.71;;;6.83;60.53
62055;BME280;48653;51.742;-1.256;2023-03-25T06:57:54;99444.98;;;6.67;60.67
62055;BME280;48653;51.742;-1.256;2023-03-25T07:00:17;99450.09;;;6.86;59.98
62055;BME280;48653;51.742;-1.256;2023-03-25T07:02:42;99448.03;;;6.92;59.93
62055;BME280;48653;51.742;-1.256;2023-03-25T07:05:08;99456.15;;;6.48;60.49
62055;BME280;48653;51.742;-1.256;2023-03-25T07:07:32;99462.83;;;7.01;58.43
62055;BME280;48653;51.742;-1.256;2023-03-25T07:09:58;99462.51;;;6.56;60.42
62055;BME280;48653;51.742;-1.256;2023-03-25T07:12:23;99459.26;;;6.42;60.53
62055;BME280;48653;51.742;-1.256;2023-03-25T07:14:50;99470.96;;;6.89;58.80
62055;BME280;48653;51.742;-1.256;2023-03-25T07:17:13;99476.71;;;6.96;58.96
62055;BME280;48653;51.742;-1.256;2023-03-25T07:19:38;99472.95;;;6.80;60.06
62055;BME280;48653;51.742;-1.256;2023-03-25T07:22:04;99480.97;;;6.44;60.88
62055;BME280;48653;51.742;-1.256;2023-03-25T07:24:30;99484.68;;;6.59;59.53
62055;BME280;48653;51.742;-1.256;2023-03-25T07:26:55;99480.46;;;6.99;59.44
62055;BME280;48653;51.742;-1.256;2023-03-25T07:29:20;99478.87;;;6.71;60.34
62055;BME280;48653;51.742;-1.256;2023-03-25T07:31:45;99478.47;;;6.61;60.24
62055;BME280;48653;51.742;-1.256;2023-03-25T07:34:11;99491.45;;;6.61;60.39
62055;BME280;48653;51.742;-1.256;2023-03-25T07:36:36;99495.03;;;6.92;59.78
62055;BME280;48653;51.742;-1.256;2023-03-25T07:39:02;99495.26;;;6.39;60.55
62055;BME280;48653;51.742;-1.256;2023-03-25T07:41:27;99502.04;;;6.96;59.46
62055;BME280;48653;51.742;-1.256;2023-03-25T07:43:52;99510.69;;;6.95;59.55
62055;BME280;48653;51.742;-1.256;2023-03-25T07:46:17;99508.10;;;6.91;59.29
62055;BME280;48653;51.742;-1.256;2023-03-25T07:48:43;99512.62;;;7.47;58.28
62055;BME280;48653;51.742;-1.256;2023-03-25T07:51:08;99521.84;;;6.68;59.17
62055;BME280;48653;51.742;-1.256;2023-03-25T07:53:33;99517.72;;;6.73;59.45
62055;BME280;48653;51.742;-1.256;2023-03-25T07:55:58;99529.15;;;6.65;59.62
62055;BME280;48653;51.742;-1.256;2023-03-25T07:58:23;99527.65;;;7.35;57.61
62055;BME280;48653;51.742;-1.256;2023-03-25T08:00:49;99526.04;;;7.61;57.02
62055;BME280;48653;51.742;-1.256;2023-03-25T08:03:14;99528.74;;;7.48;57.46
62055;BME280;48653;51.742;-1.256;2023-03-25T08:05:43;99531.93;;;7.53;57.42
62055;BME280;48653;51.742;-1.256;2023-03-25T08:08:05;99547.16;;;7.95;55.99
62055;BME280;48653;51.742;-1.256;2023-03-25T08:10:30;99554.27;;;7.77;56.77
62055;BME280;48653;51.742;-1.256;2023-03-25T08:12:55;99545.64;;;8.22;55.83
62055;BME280;48653;51.742;-1.256;2023-03-25T08:15:21;99541.75;;;8.32;55.85
62055;BME280;48653;51.742;-1.256;2023-03-25T08:17:45;99560.23;;;8.60;55.73
62055;BME280;48653;51.742;-1.256;2023-03-25T08:20:11;99560.12;;;7.80;56.70
62055;BME280;48653;51.742;-1.256;2023-03-25T08:22:36;99565.06;;;7.81;57.32
62055;BME280;48653;51.742;-1.256;2023-03-25T08:25:01;99584.37;;;7.76;56.79
62055;BME280;48653;51.742;-1.256;2023-03-25T08:27:26;99571.75;;;7.47;56.79
62055;BME280;48653;51.742;-1.256;2023-03-25T08:29:51;99573.68;;;7.97;57.20
62055;BME280;48653;51.742;-1.256;2023-03-25T08:32:16;99572.78;;;8.03;56.92
62055;BME280;48653;51.742;-1.256;2023-03-25T08:34:41;99581.44;;;8.36;55.65
62055;BME280;48653;51.742;-1.256;2023-03-25T08:37:07;99589.68;;;8.13;55.96
62055;BME280;48653;51.742;-1.256;2023-03-25T08:39:31;99598.39;;;8.30;54.85
62055;BME280;48653;51.742;-1.256;2023-03-25T08:41:56;99600.65;;;7.46;54.73
62055;BME280;48653;51.742;-1.256;2023-03-25T08:44:21;99600.89;;;8.17;53.64
62055;BME280;48653;51.742;-1.256;2023-03-25T08:46:47;99603.47;;;8.58;53.44
62055;BME280;48653;51.742;-1.256;2023-03-25T08:49:12;99604.98;;;9.36;52.87
62055;BME280;48653;51.742;-1.256;2023-03-25T08:51:37;99621.10;;;8.38;52.89
62055;BME280;48653;51.742;-1.256;2023-03-25T08:54:03;99609.61;;;8.93;52.75
62055;BME280;48653;51.742;-1.256;2023-03-25T08:56:27;99619.95;;;8.64;52.69
62055;BME280;48653;51.742;-1.256;2023-03-25T08:58:53;99613.92;;;8.76;52.40
62055;BME280;48653;51.742;-1.256;2023-03-25T09:01:18;99621.35;;;8.56;53.35
62055;BME280;48653;51.742;-1.256;2023-03-25T09:03:43;99617.31;;;8.83;53.20
62055;BME280;48653;51.742;-1.256;2023-03-25T09:06:08;99633.96;;;8.92;52.01
62055;BME280;48653;51.742;-1.256;2023-03-25T09:08:33;99639.62;;;8.62;51.93
62055;BME280;48653;51.742;-1.256;2023-03-25T09:10:58;99628.54;;;9.40;52.22
62055;BME280;48653;51.742;-1.256;2023-03-25T09:13:23;99625.92;;;9.25;53.67
62055;BME280;48653;51.742;-1.256;2023-03-25T09:15:48;99635.92;;;9.60;52.09
62055;BME280;48653;51.742;-1.256;2023-03-25T09:18:13;99641.45;;;9.55;51.64
62055;BME280;48653;51.742;-1.256;2023-03-25T09:20:38;99641.94;;;10.03;50.47
62055;BME280;48653;51.742;-1.256;2023-03-25T09:23:03;99650.40;;;10.05;49.80
62055;BME280;48653;51.742;-1.256;2023-03-25T09:25:29;99661.59;;;9.92;51.41
62055;BME280;48653;51.742;-1.256;2023-03-25T09:27:54;99654.72;;;10.22;50.28
62055;BME280;48653;51.742;-1.256;2023-03-25T09:30:19;99652.87;;;10.17;49.64
62055;BME280;48653;51.742;-1.256;2023-03-25T09:32:44;99664.10;;;10.57;48.05
62055;BME280;48653;51.742;-1.256;2023-03-25T09:35:09;99671.22;;;10.32;48.40
62055;BME280;48653;51.742;-1.256;2023-03-25T09:37:35;99678.95;;;9.56;49.30
62055;BME280;48653;51.742;-1.256;2023-03-25T09:40:00;99679.59;;;10.20;47.93
62055;BME280;48653;51.742;-1.256;2023-03-25T09:42:36;99675.16;;;9.83;48.88
62055;BME280;48653;51.742;-1.256;2023-03-25T09:44:55;99673.56;;;10.53;47.60
62055;BME280;48653;51.742;-1.256;2023-03-25T09:47:18;99663.92;;;10.20;47.23
62055;BME280;48653;51.742;-1.256;2023-03-25T09:49:44;99681.94;;;10.70;47.49
62055;BME280;48653;51.742;-1.256;2023-03-25T09:52:13;99684.09;;;10.18;47.67
62055;BME280;48653;51.742;-1.256;2023-03-25T09:54:34;99682.62;;;9.94;47.24
62055;BME280;48653;51.742;-1.256;2023-03-25T09:57:00;99691.23;;;9.79;47.83
62055;BME280;48653;51.742;-1.256;2023-03-25T09:59:24;99682.90;;;10.85;46.64
62055;BME280;48653;51.742;-1.256;2023-03-25T10:01:53;99683.13;;;11.31;45.83
62055;BME280;48653;51.742;-1.256;2023-03-25T10:04:26;99693.80;;;10.94;45.62
62055;BME280;48653;51.742;-1.256;2023-03-25T10:06:43;99699.24;;;11.26;45.29
62055;BME280;48653;51.742;-1.256;2023-03-25T10:09:19;99708.82;;;10.91;45.83
62055;BME280;48653;51.742;-1.256;2023-03-25T10:11:34;99715.50;;;11.40;44.73
62055;BME280;48653;51.742;-1.256;2023-03-25T10:13:57;99720.09;;;10.80;45.68
62055;BME280;48653;51.742;-1.256;2023-03-25T10:16:25;99721.44;;;11.45;45.13
62055;BME280;48653;51.742;-1.256;2023-03-25T10:18:51;99725.35;;;11.65;44.49
62055;BME280;48653;51.742;-1.256;2023-03-25T10:21:12;99743.80;;;11.54;43.82
62055;BME280;48653;51.742;-1.256;2023-03-25T10:23:36;99735.95;;;12.20;43.13
62055;BME280;48653;51.742;-1.256;2023-03-25T10:26:02;99745.49;;;11.88;43.10
62055;BME280;48653;51.742;-1.256;2023-03-25T10:28:27;99744.13;;;11.59;43.12
62055;BME280;48653;51.742;-1.256;2023-03-25T10:30:49;99753.08;;;11.62;42.72
62055;BME280;48653;51.742;-1.256;2023-03-25T10:33:17;99759.83;;;11.62;43.62
62055;BME280;48653;51.742;-1.256;2023-03-25T10:35:41;99770.58;;;11.87;43.66
62055;BME280;48653;51.742;-1.256;2023-03-25T10:38:09;99766.37;;;11.22;44.27
62055;BME280;48653;51.742;-1.256;2023-03-25T10:40:38;99777.71;;;11.26;44.83
62055;BME280;48653;51.742;-1.256;2023-03-25T10:43:08;99781.97;;;11.32;44.35
62055;BME280;48653;51.742;-1.256;2023-03-25T10:45:18;99783.94;;;11.08;44.46
62055;BME280;48653;51.742;-1.256;2023-03-25T10:47:44;99790.09;;;10.83;44.99
62055;BME280;48653;51.742;-1.256;2023-03-25T10:50:12;99793.34;;;11.43;44.56
62055;BME280;48653;51.742;-1.256;2023-03-25T10:52:33;99795.73;;;11.96;46.30
62055;BME280;48653;51.742;-1.256;2023-03-25T10:54:58;99800.29;;;11.47;46.54
62055;BME280;48653;51.742;-1.256;2023-03-25T10:57:27;99802.04;;;11.98;45.92
62055;BME280;48653;51.742;-1.256;2023-03-25T10:59:56;99811.56;;;12.45;45.90
62055;BME280;48653;51.742;-1.256;2023-03-25T11:02:18;99806.79;;;13.92;43.83
62055;BME280;48653;51.742;-1.256;2023-03-25T11:04:41;99814.44;;;13.01;43.77
62055;BME280;48653;51.742;-1.256;2023-03-25T11:07:15;99809.73;;;13.17;44.39
62055;BME280;48653;51.742;-1.256;2023-03-25T11:09:31;99822.17;;;14.20;43.40
62055;BME280;48653;51.742;-1.256;2023-03-25T11:11:54;99816.71;;;13.58;41.62
62055;BME280;48653;51.742;-1.256;2023-03-25T11:14:22;99804.76;;;14.38;40.84
62055;BME280;48653;51.742;-1.256;2023-03-25T11:16:46;99821.31;;;13.80;40.42
62055;BME280;48653;51.742;-1.256;2023-03-25T11:19:17;99823.93;;;14.15;41.01
62055;BME280;48653;51.742;-1.256;2023-03-25T11:21:35;99820.87;;;13.56;40.79
62055;BME280;48653;51.742;-1.256;2023-03-25T11:24:01;99816.73;;;14.93;40.23
62055;BME280;48653;51.742;-1.256;2023-03-25T11:26:26;99823.15;;;14.26;40.13
62055;BME280;48653;51.742;-1.256;2023-03-25T11:28:53;99821.78;;;15.01;40.14
62055;BME280;48653;51.742;-1.256;2023-03-25T11:31:18;99831.44;;;14.46;38.71
62055;BME280;48653;51.742;-1.256;2023-03-25T11:33:41;99825.38;;;14.70;38.72
62055;BME280;48653;51.742;-1.256;2023-03-25T11:36:19;99844.56;;;13.42;40.81
62055;BME280;48653;51.742;-1.256;2023-03-25T11:38:30;99848.86;;;13.78;40.27
62055;BME280;48653;51.742;-1.256;2023-03-25T11:40:56;99859.42;;;12.55;42.17
62055;BME280;48653;51.742;-1.256;2023-03-25T11:43:22;99856.37;;;12.86;42.96
62055;BME280;48653;51.742;-1.256;2023-03-25T11:45:48;99859.77;;;13.96;42.59
62055;BME280;48653;51.742;-1.256;2023-03-25T11:48:14;99863.55;;;14.80;41.10
62055;BME280;48653;51.742;-1.256;2023-03-25T11:50:36;99864.68;;;14.00;41.35
62055;BME280;48653;51.742;-1.256;2023-03-25T11:53:02;99853.22;;;15.06;40.33
62055;BME280;48653;51.742;-1.256;2023-03-25T11:55:27;99857.70;;;15.15;40.44
62055;BME280;48653;51.742;-1.256;2023-03-25T11:57:52;99863.49;;;15.12;39.93
62055;BME280;48653;51.742;-1.256;2023-03-25T12:00:27;99866.43;;;14.60;39.28
62055;BME280;48653;51.742;-1.256;2023-03-25T12:02:41;99862.64;;;15.00;39.86
62055;BME280;48653;51.742;-1.256;2023-03-25T12:05:13;99867.53;;;14.47;40.24
62055;BME280;48653;51.742;-1.256;2023-03-25T12:07:39;99867.33;;;14.11;40.43
62055;BME280;48653;51.742;-1.256;2023-03-25T12:10:04;99867.32;;;14.64;40.34
62055;BME280;48653;51.742;-1.256;2023-03-25T12:12:30;99864.51;;;13.79;40.71
62055;BME280;48653;51.742;-1.256;2023-03-25T12:14:51;99862.91;;;13.41;41.37
62055;BME280;48653;51.742;-1.256;2023-03-25T12:17:18;99859.66;;;13.60;41.15
62055;BME280;48653;51.742;-1.256;2023-03-25T12:19:43;99863.62;;;13.56;41.01
62055;BME280;48653;51.742;-1.256;2023-03-25T12:22:11;99875.54;;;13.54;41.27
62055;BME280;48653;51.742;-1.256;2023-03-25T12:24:37;99865.67;;;13.38;41.56
62055;BME280;48653;51.742;-1.256;2023-03-25T12:27:10;99866.82;;;13.51;41.90
62055;BME280;48653;51.742;-1.256;2023-03-25T12:29:25;99857.91;;;13.08;40.96
62055;BME280;48653;51.742;-1.256;2023-03-25T12:31:53;99854.01;;;12.95;41.56
62055;BME280;48653;51.742;-1.256;2023-03-25T12:34:12;99861.21;;;13.35;41.51
62055;BME280;48653;51.742;-1.256;2023-03-25T12:36:41;99876.58;;;13.05;40.74
62055;BME280;48653;51.742;-1.256;2023-03-25T12:39:08;99868.81;;;13.13;41.14
62055;BME280;48653;51.742;-1.256;2023-03-25T12:41:25;99862.26;;;13.76;39.88
62055;BME280;48653;51.742;-1.256;2023-03-25T12:43:59;99862.96;;;13.87;39.43
62055;BME280;48653;51.742;-1.256;2023-03-25T12:46:22;99856.92;;;14.99;38.64
62055;BME280;48653;51.742;-1.256;2023-03-25T12:48:50;99862.01;;;15.66;37.72
62055;BME280;48653;51.742;-1.256;2023-03-25T12:51:09;99867.64;;;14.65;38.07
62055;BME280;48653;51.742;-1.256;2023-03-25T12:53:37;99865.53;;;15.02;37.82
62055;BME280;48653;51.742;-1.256;2023-03-25T12:56:00;99863.57;;;14.86;38.27
62055;BME280;48653;51.742;-1.256;2023-03-25T12:58:30;99861.31;;;15.11;36.82